Time;durP1;ratioP1;P1;durP2;ratioP2;P2;SDS_P1;SDS_P2;PMS_P1;PMS_P2;Temp;Humidity;BMP_temperature;BMP_pressure;BME280_temperature;BME280_humidity;BME280_pressure;Samples;Min_cycle;Max_cycle;Signal;HPM_P1;HPM_P2
2022/12/29 00:02:18;;;;;;;5.90;2.90;;;;;;;14.42;100.00;99888.13;5120937;28;20051;-58
2022/12/29 00:04:44;;;;;;;3.47;2.33;;;;;;;14.57;100.00;99864.16;5117283;28;20272;-55
2022/12/29 00:07:09;;;;;;;5.55;2.53;;;;;;;14.30;100.00;99858.59;5116604;28;20039;-56
2022/12/29 00:09:36;;;;;;;4.00;2.25;;;;;;;14.41;100.00;99860.41;5119062;28;20032;-56
2022/12/29 00:12:03;;;;;;;4.90;2.50;;;;;;;14.72;100.00;99862.78;5119160;28;20107;-54
2022/12/29 00:17:14;;;;;;;4.40;2.80;;;;;;;14.59;100.00;99855.84;5116044;28;20265;-56
2022/12/29 00:36:18;;;;;;;4.70;2.40;;;;;;;14.54;100.00;99842.31;5114728;28;20332;-52
2022/12/29 00:44:51;;;;;;;6.70;2.83;;;;;;;14.42;100.00;99808.25;5113288;28;20271;-56
2022/12/29 00:47:17;;;;;;;5.30;2.30;;;;;;;14.64;100.00;99823.63;5118708;28;20259;-55
2022/12/29 00:49:42;;;;;;;5.37;2.10;;;;;;;14.53;100.00;99797.63;5118437;28;20028;-53
2022/12/29 00:52:10;;;;;;;7.07;2.73;;;;;;;14.70;100.00;99789.53;5102668;28;20028;-52
2022/12/29 00:54:37;;;;;;;11.07;2.80;;;;;;;14.69;100.00;99794.09;5104820;28;20028;-52
2022/12/29 00:57:05;;;;;;;5.10;2.53;;;;;;;14.55;100.00;99782.06;5122488;28;20291;-56
2022/12/29 00:59:30;;;;;;;4.00;2.20;;;;;;;14.38;100.00;99801.72;5096406;28;20276;-54
2022/12/29 01:01:57;;;;;;;2.45;1.10;;;;;;;14.43;100.00;99782.16;5119720;28;20336;-53
2022/12/29 01:04:24;;;;;;;3.83;1.70;;;;;;;14.61;100.00;99775.69;5116981;28;20028;-53
2022/12/29 01:06:50;;;;;;;2.87;1.60;;;;;;;14.56;100.00;99794.44;5099591;28;20049;-56
2022/12/29 01:12:02;;;;;;;2.93;1.50;;;;;;;14.67;100.00;99772.00;5120916;28;20028;-55
2022/12/29 01:14:28;;;;;;;5.50;1.95;;;;;;;14.26;100.00;99780.31;5122490;28;20296;-52
2022/12/29 01:16:55;;;;;;;4.80;1.98;;;;;;;14.20;100.00;99782.09;5119184;28;20043;-50
2022/12/29 01:19:21;;;;;;;6.60;1.73;;;;;;;14.18;100.00;99773.47;5114855;28;20573;-50
2022/12/29 01:21:48;;;;;;;5.43;2.70;;;;;;;14.04;100.00;99788.28;5124672;28;20257;-54
2022/12/29 01:24:15;;;;;;;4.78;2.35;;;;;;;14.33;100.00;99807.03;5122844;28;20266;-56
2022/12/29 01:26:41;;;;;;;4.00;2.00;;;;;;;14.08;100.00;99804.75;5117377;28;20040;-55
2022/12/29 01:29:06;;;;;;;4.07;1.95;;;;;;;14.11;100.00;99783.56;5119036;28;20273;-53
2022/12/29 01:31:32;;;;;;;4.47;2.17;;;;;;;14.07;100.00;99771.69;5108065;28;20050;-53
2022/12/29 01:33:57;;;;;;;3.88;1.70;;;;;;;13.98;100.00;99775.81;5120013;28;20031;-54
2022/12/29 01:36:23;;;;;;;2.70;1.77;;;;;;;14.14;100.00;99780.41;5116614;28;20099;-56
2022/12/29 01:38:49;;;;;;;4.30;2.25;;;;;;;14.30;100.00;99759.09;5104880;28;20273;-54
2022/12/29 01:41:15;;;;;;;4.40;1.83;;;;;;;14.12;100.00;99771.75;5100209;28;20040;-51
2022/12/29 01:43:42;;;;;;;5.45;1.83;;;;;;;14.23;100.00;99758.47;5116018;28;20023;-55
2022/12/29 01:46:27;;;;;;;6.53;3.23;;;;;;;14.11;100.00;99743.25;5101021;28;20065;-56
2022/12/29 01:48:58;;;;;;;5.33;2.90;;;;;;;14.19;100.00;99748.19;5091022;28;20273;-55
2022/12/29 01:51:25;;;;;;;3.63;1.60;;;;;;;14.45;100.00;99766.59;5098735;28;20272;-51
2022/12/29 01:53:54;;;;;;;5.23;2.47;;;;;;;14.70;100.00;99763.41;5116284;28;20292;-50
2022/12/29 01:56:21;;;;;;;6.57;2.30;;;;;;;14.70;100.00;99763.41;5115192;28;20275;-53
2022/12/29 01:58:53;;;;;;;7.93;1.80;;;;;;;14.73;100.00;99781.78;5096255;28;20275;-54
2022/12/29 02:01:20;;;;;;;4.90;1.97;;;;;;;14.16;100.00;99786.34;5119463;28;20322;-54
2022/12/29 02:03:47;;;;;;;6.37;1.60;;;;;;;14.18;100.00;99803.03;5091548;28;20275;-54
2022/12/29 02:06:27;;;;;;;3.60;1.67;;;;;;;14.12;100.00;99784.38;5095034;28;20288;-54
2022/12/29 02:08:55;;;;;;;6.43;2.10;;;;;;;13.86;100.00;99792.84;5111835;28;20054;-52
2022/12/29 02:11:25;;;;;;;6.53;1.80;;;;;;;13.80;100.00;99764.25;5095921;28;20264;-54
2022/12/29 02:13:50;;;;;;;18.40;1.77;;;;;;;13.87;100.00;99788.28;5112517;28;20289;-56
2022/12/29 02:16:35;;;;;;;5.80;1.20;;;;;;;13.18;100.00;99803.41;5118359;28;20295;-59
2022/12/29 02:19:14;;;;;;;10.00;1.70;;;;;;;45.28;100.00;99830.88;5114489;28;20040;-61
2022/12/29 02:22:11;;;;;;;0.00;0.00;;;;;;;27.87;100.00;99856.72;5097372;28;20284;-63
2022/12/29 02:25:19;;;;;;;0.10;0.10;;;;;;;26.43;100.00;99797.88;5091940;28;20324;-60
2022/12/29 02:28:02;;;;;;;0.10;0.10;;;;;;;25.00;100.00;99786.50;5097718;28;20288;-61
2022/12/29 02:30:50;;;;;;;0.10;0.10;;;;;;;26.29;100.00;99758.91;5094836;28;20040;-60
2022/12/29 02:33:38;;;;;;;0.00;0.00;;;;;;;26.14;85.13;99763.78;5075984;28;20291;-60
2022/12/29 02:36:19;;;;;;;0.13;0.13;;;;;;;25.47;96.47;99742.13;5069623;28;20036;-59
2022/12/29 02:38:59;;;;;;;0.70;0.70;;;;;;;24.45;100.00;99755.78;5073617;28;20294;-56
2022/12/29 02:41:32;;;;;;;0.10;0.10;;;;;;;24.57;98.63;99740.69;5073519;28;20324;-58
2022/12/29 02:44:23;;;;;;;0.00;0.00;;;;;;;24.25;98.18;99739.94;5069516;28;20302;-59
2022/12/29 02:46:59;;;;;;;0.20;0.20;;;;;;;25.29;92.99;99751.47;5090358;28;20341;-59
2022/12/29 02:49:48;;;;;;;0.10;0.10;;;;;;;23.45;100.00;99735.88;5071348;28;20301;-60
2022/12/29 02:52:30;;;;;;;10.33;1.17;;;;;;;22.67;100.00;99737.56;5072302;28;20033;-59
2022/12/29 02:54:58;;;;;;;1.27;1.13;;;;;;;23.70;100.00;99728.19;5088297;28;20477;-58
2022/12/29 02:57:25;;;;;;;6.43;1.67;;;;;;;22.92;100.00;99733.47;5074589;28;20266;-58
2022/12/29 03:00:00;;;;;;;0.30;0.30;;;;;;;22.89;100.00;99734.09;5073228;28;20281;-57
2022/12/29 03:02:59;;;;;;;0.73;0.73;;;;;;;24.02;97.56;99704.50;5074658;28;20278;-59
2022/12/29 03:05:43;;;;;;;0.00;0.00;;;;;;;21.47;100.00;99727.91;5033689;28;20301;-57
2022/12/29 03:08:22;;;;;;;0.33;0.33;;;;;;;21.39;100.00;99717.72;5089580;28;20312;-59
2022/12/29 03:10:58;;;;;;;0.10;0.10;;;;;;;21.50;100.00;99712.94;5073230;28;20328;-58
2022/12/29 03:16:43;;;;;;;9.23;2.03;;;;;;;21.07;100.00;99721.97;5073896;28;20088;-60
2022/12/29 03:19:27;;;;;;;9.88;2.28;;;;;;;21.85;100.00;99724.34;5073096;28;20101;-59
2022/12/29 03:24:57;;;;;;;6.75;2.05;;;;;;;21.00;100.00;99730.53;5073374;28;20297;-59
2022/12/29 03:27:34;;;;;;;7.33;1.97;;;;;;;21.22;100.00;99729.13;5073182;28;20063;-57
2022/12/29 03:30:05;;;;;;;6.10;2.10;;;;;;;20.83;100.00;99713.91;5072631;28;20296;-58
2022/12/29 03:32:40;;;;;;;6.27;1.80;;;;;;;21.02;100.00;99712.00;5089268;28;20284;-60
2022/12/29 03:35:08;;;;;;;6.53;2.10;;;;;;;21.26;100.00;99699.41;5101897;28;20273;-57
2022/12/29 03:37:40;;;;;;;9.20;2.23;;;;;;;20.96;100.00;99705.00;5103900;28;20260;-59
2022/12/29 03:40:06;;;;;;;3.10;1.50;;;;;;;21.51;100.00;99692.78;5104720;28;20271;-60
2022/12/29 03:42:36;;;;;;;4.18;1.70;;;;;;;22.08;100.00;99702.72;5123144;28;20339;-57
2022/12/29 03:45:04;;;;;;;11.63;2.13;;;;;;;21.65;100.00;99705.63;5122444;28;20051;-57
2022/12/29 03:47:32;;;;;;;11.47;2.20;;;;;;;20.55;100.00;99700.88;5102220;28;20264;-58
2022/12/29 03:49:58;;;;;;;5.05;1.67;;;;;;;20.51;100.00;99701.75;5118384;28;20268;-57
2022/12/29 03:52:23;;;;;;;8.03;2.27;;;;;;;20.43;100.00;99692.34;5106274;28;20020;-55
2022/12/29 03:54:51;;;;;;;4.73;1.67;;;;;;;21.06;100.00;99685.84;5101263;28;20024;-58
2022/12/29 03:57:17;;;;;;;8.00;2.50;;;;;;;20.61;100.00;99696.22;5104893;28;20272;-57
2022/12/29 04:00:04;;;;;;;8.70;1.97;;;;;;;20.61;100.00;99688.06;5116783;28;20050;-57
2022/12/29 04:02:40;;;;;;;4.73;1.23;;;;;;;20.26;100.00;99698.22;5121406;28;20312;-58
2022/12/29 04:05:06;;;;;;;3.65;1.50;;;;;;;20.68;100.00;99693.13;5103764;28;20268;-55
2022/12/29 04:07:32;;;;;;;8.70;1.40;;;;;;;21.19;100.00;99694.34;5101595;28;20089;-55
2022/12/29 04:10:00;;;;;;;5.77;1.30;;;;;;;20.48;100.00;99700.44;5103912;28;20027;-56
2022/12/29 04:12:27;;;;;;;6.93;1.33;;;;;;;21.18;100.00;99709.03;5101758;28;20275;-55
2022/12/29 04:14:52;;;;;;;4.10;1.20;;;;;;;20.99;100.00;99709.88;5100250;28;20028;-56
2022/12/29 04:17:18;;;;;;;5.47;1.93;;;;;;;21.10;100.00;99696.13;5100954;28;20027;-56
2022/12/29 04:19:49;;;;;;;5.07;1.27;;;;;;;21.18;100.00;99712.59;5120345;28;20035;-55
2022/12/29 04:22:14;;;;;;;5.73;1.10;;;;;;;20.51;100.00;99726.19;5119101;28;20260;-54
2022/12/29 04:24:40;;;;;;;4.40;1.40;;;;;;;20.59;100.00;99714.69;5100790;28;20264;-55
2022/12/29 04:27:05;;;;;;;8.00;1.40;;;;;;;21.02;100.00;99727.50;5100675;28;20028;-55
2022/12/29 04:29:49;;;;;;;6.10;0.90;;;;;;;20.93;100.00;99727.34;5114081;28;20062;-57
2022/12/29 04:32:42;;;;;;;4.57;1.07;;;;;;;20.80;100.00;99709.03;5105980;28;20284;-54
2022/12/29 04:35:08;;;;;;;5.95;0.90;;;;;;;21.14;100.00;99718.91;5068671;28;20291;-55
2022/12/29 04:37:34;;;;;;;9.73;2.13;;;;;;;20.96;100.00;99739.53;5101362;28;20043;-52
2022/12/29 04:39:59;;;;;;;7.13;1.43;;;;;;;19.44;100.00;99706.81;5097095;28;20051;-56
2022/12/29 04:42:25;;;;;;;9.48;1.30;;;;;;;18.16;100.00;99717.13;5103221;28;20276;-55
2022/12/29 04:44:51;;;;;;;5.80;1.63;;;;;;;20.68;100.00;99721.09;5117580;28;20046;-57
2022/12/29 04:47:33;;;;;;;5.10;1.17;;;;;;;22.00;100.00;99736.06;5105332;28;20050;-54
2022/12/29 04:50:06;;;;;;;11.23;1.50;;;;;;;19.21;100.00;99724.59;5119702;28;20616;-52
2022/12/29 04:52:33;;;;;;;6.67;1.20;;;;;;;19.84;100.00;99741.22;5115823;28;20294;-49
2022/12/29 04:54:58;;;;;;;11.02;1.70;;;;;;;18.69;100.00;99742.97;5122685;28;20271;-53
2022/12/29 04:57:24;;;;;;;8.47;1.33;;;;;;;20.19;100.00;99737.38;5105820;28;20100;-51
2022/12/29 04:59:54;;;;;;;13.50;1.90;;;;;;;20.78;100.00;99725.59;5104276;28;20303;-56
2022/12/29 05:02:20;;;;;;;5.68;1.65;;;;;;;20.63;100.00;99746.41;5115488;28;20261;-53
2022/12/29 05:04:48;;;;;;;4.33;1.00;;;;;;;20.35;100.00;99742.66;5105287;28;20042;-54
2022/12/29 05:07:14;;;;;;;6.43;1.17;;;;;;;19.10;100.00;99747.41;5102770;28;20344;-54
2022/12/29 05:09:42;;;;;;;5.73;1.13;;;;;;;19.68;100.00;99737.81;5100890;28;20060;-52
2022/12/29 05:12:07;;;;;;;5.30;0.87;;;;;;;19.58;100.00;99757.69;5107471;28;20279;-55
2022/12/29 05:14:38;;;;;;;7.87;1.13;;;;;;;19.30;100.00;99743.78;5103614;28;20028;-55
2022/12/29 05:17:03;;;;;;;9.40;1.50;;;;;;;18.29;100.00;99754.44;5105577;28;20298;-53
2022/12/29 05:19:29;;;;;;;6.00;1.30;;;;;;;18.68;100.00;99744.84;5105523;28;20260;-54
2022/12/29 05:21:55;;;;;;;5.77;1.90;;;;;;;18.70;100.00;99745.41;5103243;28;20060;-53
2022/12/29 05:24:21;;;;;;;11.15;1.70;;;;;;;18.52;100.00;99767.66;5108687;28;20055;-53
2022/12/29 05:26:47;;;;;;;7.22;1.30;;;;;;;20.35;100.00;99767.09;5122887;28;20078;-54
2022/12/29 05:29:31;;;;;;;8.40;2.00;;;;;;;21.47;97.30;99767.91;5124864;28;20066;-54
2022/12/29 05:31:57;;;;;;;9.07;1.52;;;;;;;20.52;100.00;99763.09;5103323;28;20340;-55
2022/12/29 05:34:24;;;;;;;10.00;1.83;;;;;;;21.48;97.16;99759.44;5106486;28;20387;-52
2022/12/29 05:36:50;;;;;;;9.93;1.60;;;;;;;21.37;97.39;99768.06;5123355;28;20268;-51
2022/12/29 05:39:18;;;;;;;8.53;1.63;;;;;;;20.93;97.58;99776.25;5105204;28;20063;-51
2022/12/29 05:41:49;;;;;;;9.80;1.80;;;;;;;19.90;100.00;99786.19;5105066;28;20303;-53
2022/12/29 05:44:14;;;;;;;10.07;2.05;;;;;;;20.51;99.21;99789.47;5126571;28;20264;-52
2022/12/29 05:46:48;;;;;;;6.43;1.30;;;;;;;20.42;100.00;99772.19;5105528;28;20043;-55
2022/12/29 05:49:19;;;;;;;7.43;1.60;;;;;;;20.75;100.00;99775.88;5105328;28;20274;-53
2022/12/29 05:52:04;;;;;;;11.83;1.70;;;;;;;19.97;100.00;99783.19;5106934;28;20299;-53
2022/12/29 05:54:31;;;;;;;12.23;2.00;;;;;;;20.62;100.00;99777.38;5119826;28;20284;-55
2022/12/29 05:56:57;;;;;;;11.00;2.45;;;;;;;20.34;100.00;99789.91;5104736;28;20292;-55
2022/12/29 05:59:23;;;;;;;11.03;2.10;;;;;;;19.78;100.00;99791.97;5104700;28;20032;-55
2022/12/29 06:01:49;;;;;;;12.07;2.13;;;;;;;20.01;100.00;99776.09;5097818;28;20298;-52
2022/12/29 06:04:15;;;;;;;7.75;2.17;;;;;;;19.30;100.00;99787.94;5103598;28;20355;-53
2022/12/29 06:06:41;;;;;;;8.52;1.73;;;;;;;19.90;100.00;99784.31;5106320;28;20036;-55
2022/12/29 06:09:12;;;;;;;7.70;1.87;;;;;;;19.67;100.00;99791.25;5103860;28;20036;-55
2022/12/29 06:11:37;;;;;;;15.05;1.27;;;;;;;20.03;100.00;99787.47;5124342;28;20297;-54
2022/12/29 06:14:03;;;;;;;16.57;2.93;;;;;;;19.98;100.00;99784.81;5123461;28;20047;-56
2022/12/29 06:16:28;;;;;;;6.70;1.47;;;;;;;20.16;99.85;99777.84;5105161;28;20276;-55
2022/12/29 06:18:57;;;;;;;10.20;2.10;;;;;;;19.96;99.87;99779.69;5101575;28;20032;-54
2022/12/29 06:21:23;;;;;;;6.87;1.50;;;;;;;19.85;100.00;99787.06;5108790;28;20348;-55
2022/12/29 06:23:49;;;;;;;13.55;1.83;;;;;;;19.96;98.60;99787.81;5120699;28;20047;-54
2022/12/29 06:26:14;;;;;;;9.20;1.70;;;;;;;20.35;98.41;99783.41;5104080;28;20027;-55
2022/12/29 06:28:40;;;;;;;7.65;1.77;;;;;;;19.95;98.49;99774.53;5104865;28;20028;-54
2022/12/29 06:31:09;;;;;;;10.37;1.33;;;;;;;19.84;97.35;99803.59;5106239;28;20046;-51
2022/12/29 06:33:34;;;;;;;8.27;1.40;;;;;;;19.75;97.95;99795.25;5103528;28;20036;-52
2022/12/29 06:36:00;;;;;;;10.57;1.73;;;;;;;19.85;98.06;99787.06;5103418;28;20295;-50
2022/12/29 06:38:25;;;;;;;10.47;1.77;;;;;;;20.17;94.95;99798.47;5101706;28;20280;-50
2022/12/29 06:40:50;;;;;;;11.33;2.17;;;;;;;20.36;93.28;99795.88;5103573;28;20054;-51
2022/12/29 06:43:38;;;;;;;6.93;1.30;;;;;;;20.38;93.00;99799.09;5100688;28;20059;-53
2022/12/29 06:46:14;;;;;;;9.97;2.30;;;;;;;20.97;91.77;99798.22;5121142;28;20260;-50
2022/12/29 06:48:41;;;;;;;10.90;1.63;;;;;;;21.35;87.87;99809.16;5123816;28;20328;-53
2022/12/29 06:51:07;;;;;;;4.53;1.97;;;;;;;20.71;90.22;99796.56;5120836;28;20044;-53
2022/12/29 06:53:33;;;;;;;13.35;1.55;;;;;;;20.70;91.20;99805.81;5120084;28;20375;-56
2022/12/29 06:55:58;;;;;;;6.93;1.77;;;;;;;19.75;95.72;99795.25;5123053;28;20038;-56
2022/12/29 06:58:24;;;;;;;7.35;2.10;;;;;;;20.64;92.25;99809.69;5120028;28;20096;-55
2022/12/29 07:00:49;;;;;;;11.90;1.50;;;;;;;20.96;88.72;99812.91;5120569;28;20043;-56
2022/12/29 07:03:15;;;;;;;10.57;1.47;;;;;;;20.65;88.66;99821.38;5122714;28;20269;-54
2022/12/29 07:05:40;;;;;;;9.73;1.60;;;;;;;20.86;88.38;99802.97;5119024;28;20083;-56
2022/12/29 07:08:06;;;;;;;14.67;1.73;;;;;;;20.75;89.04;99807.69;5124290;28;20273;-53
2022/12/29 07:10:31;;;;;;;15.27;1.88;;;;;;;20.76;90.42;99801.97;5117370;28;20036;-54
2022/12/29 07:12:57;;;;;;;9.38;1.45;;;;;;;20.15;90.38;99816.94;5116481;28;20070;-55
2022/12/29 07:15:22;;;;;;;9.57;1.10;;;;;;;20.83;89.14;99814.41;5116863;28;20040;-51
2022/12/29 07:17:49;;;;;;;10.17;1.80;;;;;;;20.45;89.17;99810.44;5117435;28;20028;-55
2022/12/29 07:20:15;;;;;;;7.90;1.23;;;;;;;19.99;91.09;99821.69;5116876;28;20115;-55
2022/12/29 07:22:40;;;;;;;6.55;1.45;;;;;;;20.17;91.53;99814.75;5116852;28;20268;-54
2022/12/29 07:25:06;;;;;;;10.07;1.77;;;;;;;20.87;90.13;99829.03;5115302;28;20040;-52
2022/12/29 07:27:31;;;;;;;11.38;2.17;;;;;;;19.42;94.01;99822.06;5120178;28;20066;-52
2022/12/29 07:29:57;;;;;;;8.63;1.77;;;;;;;19.31;97.46;99834.84;5120568;28;20044;-55
2022/12/29 07:32:22;;;;;;;13.77;2.00;;;;;;;19.52;95.55;99845.59;5121041;28;20059;-54
2022/12/29 07:34:48;;;;;;;2.50;1.00;;;;;;;19.29;96.12;99840.53;5115424;28;20109;-50
2022/12/29 07:37:17;;;;;;;8.30;2.00;;;;;;;19.50;96.11;99843.16;5098845;28;20265;-49
2022/12/29 07:39:42;;;;;;;9.63;1.40;;;;;;;19.77;94.02;99842.72;5120121;28;20035;-53
2022/12/29 07:42:08;;;;;;;9.30;1.55;;;;;;;19.58;93.45;99853.41;5118660;28;20273;-57
2022/12/29 07:44:40;;;;;;;8.87;1.20;;;;;;;19.93;92.28;99848.06;5101222;28;20028;-55
2022/12/29 07:47:15;;;;;;;8.97;2.33;;;;;;;19.88;94.26;99853.50;5114085;28;20268;-53
2022/12/29 07:49:40;;;;;;;9.93;2.20;;;;;;;19.36;93.06;99845.66;5118500;28;20378;-53
2022/12/29 07:52:05;;;;;;;9.17;1.90;;;;;;;19.66;93.23;99851.22;5116358;28;20091;-50
2022/12/29 07:54:31;;;;;;;10.30;1.88;;;;;;;19.77;90.37;99847.31;5119861;28;20024;-52
2022/12/29 07:56:59;;;;;;;7.55;1.30;;;;;;;19.59;92.26;99857.72;5117327;28;20032;-50
2022/12/29 07:59:26;;;;;;;14.73;1.70;;;;;;;19.15;91.70;99867.44;5117933;28;20035;-54
2022/12/29 08:01:51;;;;;;;8.68;1.98;;;;;;;19.30;90.89;99879.31;5119939;28;20260;-54
2022/12/29 08:04:17;;;;;;;8.50;1.37;;;;;;;19.28;89.84;99882.28;5121665;28;20062;-53
2022/12/29 08:06:42;;;;;;;17.02;3.03;;;;;;;19.28;90.30;99876.06;5121601;28;20031;-51
2022/12/29 08:09:08;;;;;;;17.55;2.58;;;;;;;19.98;85.91;99888.75;5118084;28;20035;-55
2022/12/29 08:11:34;;;;;;;11.05;1.67;;;;;;;19.62;86.99;99875.34;5114760;28;20031;-53
2022/12/29 08:14:00;;;;;;;11.23;1.88;;;;;;;19.52;86.19;99876.22;5121068;28;20054;-52
2022/12/29 08:16:25;;;;;;;14.67;2.10;;;;;;;19.18;87.13;99871.50;5118921;28;20043;-53
2022/12/29 08:18:51;;;;;;;10.80;1.73;;;;;;;19.85;85.25;99862.19;5117216;28;20328;-53
2022/12/29 08:21:16;;;;;;;10.33;2.17;;;;;;;19.55;85.78;99867.53;5118237;28;20276;-48
2022/12/29 08:23:42;;;;;;;23.58;2.78;;;;;;;19.12;88.03;99873.41;5115742;28;20032;-52
2022/12/29 08:26:07;;;;;;;8.50;2.33;;;;;;;19.20;88.22;99847.66;5120626;28;20067;-54
2022/12/29 08:28:33;;;;;;;14.10;2.23;;;;;;;18.94;89.63;99876.69;5118567;28;20271;-52
2022/12/29 08:31:00;;;;;;;13.32;1.75;;;;;;;18.94;89.43;99863.13;5117105;28;20039;-49
2022/12/29 08:33:27;;;;;;;9.07;1.53;;;;;;;19.55;87.28;99877.56;5115930;28;20040;-53
2022/12/29 08:35:52;;;;;;;15.95;1.65;;;;;;;19.45;87.98;99883.84;5120537;28;20264;-52
2022/12/29 08:38:18;;;;;;;9.70;1.50;;;;;;;19.29;89.48;99886.63;5118634;28;20078;-54
2022/12/29 08:40:43;;;;;;;7.47;1.95;;;;;;;19.41;90.44;99867.31;5123031;28;20028;-56
2022/12/29 08:43:09;;;;;;;9.68;2.03;;;;;;;19.25;90.80;99871.19;5117896;28;20028;-49
2022/12/29 08:45:34;;;;;;;12.67;2.40;;;;;;;18.79;92.41;99864.78;5126076;28;20035;-52
2022/12/29 08:48:00;;;;;;;7.03;1.63;;;;;;;18.68;94.43;99879.44;5120500;28;20035;-50
2022/12/29 08:50:25;;;;;;;4.93;1.70;;;;;;;18.70;93.24;99852.91;5124329;28;20053;-53
2022/12/29 08:52:51;;;;;;;8.47;1.80;;;;;;;18.96;95.70;99861.78;5120178;28;20288;-55
2022/12/29 08:55:16;;;;;;;14.17;2.17;;;;;;;19.16;98.62;99870.97;5125905;28;20276;-50
2022/12/29 08:57:42;;;;;;;11.93;2.00;;;;;;;18.57;100.00;99859.69;5120809;28;20064;-52
2022/12/29 09:00:17;;;;;;;8.80;1.60;;;;;;;18.59;100.00;99857.53;5106803;28;20043;-54
2022/12/29 09:02:42;;;;;;;8.30;2.75;;;;;;;18.83;100.00;99859.66;5103990;28;20628;-54
2022/12/29 09:05:08;;;;;;;8.30;2.23;;;;;;;18.36;100.00;99870.53;5119350;28;20040;-53
2022/12/29 09:07:34;;;;;;;8.45;1.50;;;;;;;18.24;100.00;99875.44;5124834;28;20087;-53
2022/12/29 09:09:59;;;;;;;19.38;2.05;;;;;;;18.11;100.00;99877.56;5120989;28;20047;-52
2022/12/29 09:12:25;;;;;;;16.63;3.50;;;;;;;19.10;97.40;99885.59;5120001;28;20043;-53
2022/12/29 09:14:50;;;;;;;11.90;2.33;;;;;;;19.04;95.76;99877.50;5125985;28;20028;-54
2022/12/29 09:20:00;;;;;;;18.27;2.73;;;;;;;19.08;94.92;99894.03;5120945;28;20047;-53
2022/12/29 09:22:25;;;;;;;12.93;2.00;;;;;;;18.59;96.94;99892.72;5120430;28;20280;-52
2022/12/29 09:24:51;;;;;;;11.50;2.80;;;;;;;18.94;99.90;99893.75;5121473;28;20024;-48
2022/12/29 09:27:17;;;;;;;14.60;2.47;;;;;;;18.78;100.00;99891.06;5119860;28;20046;-52
2022/12/29 09:29:42;;;;;;;14.80;1.83;;;;;;;19.03;100.00;99908.38;5122843;28;20284;-54
2022/12/29 09:32:08;;;;;;;7.57;1.80;;;;;;;17.29;100.00;99905.19;5123075;28;20292;-48
2022/12/29 09:34:34;;;;;;;12.43;3.10;;;;;;;16.91;100.00;99910.63;5123301;28;20036;-51
2022/12/29 09:36:59;;;;;;;11.57;2.10;;;;;;;16.54;100.00;99931.16;5122987;28;20051;-49
2022/12/29 09:39:25;;;;;;;17.23;2.00;;;;;;;17.05;100.00;99924.50;5123778;28;20032;-55
2022/12/29 09:42:03;;;;;;;12.97;2.80;;;;;;;17.22;100.00;99934.31;5124473;28;20103;-50
2022/12/29 09:44:50;;;;;;;9.57;2.13;;;;;;;16.41;100.00;99951.28;5119713;28;20087;-51
2022/12/29 09:47:18;;;;;;;16.50;2.95;;;;;;;16.22;100.00;99952.72;5120202;28;20268;-53
2022/12/29 09:49:56;;;;;;;13.60;2.13;;;;;;;16.35;100.00;99957.69;5120717;28;20028;-53
2022/12/29 09:52:29;;;;;;;12.53;2.27;;;;;;;16.80;100.00;99981.81;5121245;28;20270;-51
2022/12/29 09:55:10;;;;;;;14.93;2.00;;;;;;;16.12;100.00;99967.72;5103825;28;20678;-56
2022/12/29 09:57:41;;;;;;;6.23;1.83;;;;;;;16.27;100.00;99974.34;5117209;28;20297;-54
2022/12/29 10:00:19;;;;;;;12.67;2.70;;;;;;;16.71;100.00;99976.91;5122983;28;20322;-55
2022/12/29 10:02:54;;;;;;;18.53;2.43;;;;;;;17.29;100.00;99978.13;5123519;28;20292;-49
2022/12/29 10:05:38;;;;;;;12.47;2.30;;;;;;;16.94;100.00;99983.00;5124322;28;20260;-50
2022/12/29 10:08:25;;;;;;;15.33;1.93;;;;;;;16.82;100.00;99971.56;5120255;28;20371;-53
2022/12/29 10:10:56;;;;;;;;;;;;;;;16.67;100.00;99991.97;5115756;28;20283;-52
2022/12/29 10:13:36;;;;;;;18.30;3.07;;;;;;;16.95;100.00;99997.31;5118774;28;19920;-54
2022/12/29 10:16:18;;;;;;;10.30;2.67;;;;;;;16.50;100.00;99992.13;5117933;28;20283;-52
2022/12/29 10:18:51;;;;;;;13.80;3.67;;;;;;;16.33;100.00;99989.50;5123128;28;20288;-53
2022/12/29 10:21:28;;;;;;;14.10;2.93;;;;;;;17.82;100.00;100002.44;5120433;28;20264;-53
2022/12/29 10:23:54;;;;;;;18.90;2.55;;;;;;;17.88;100.00;100004.09;5110612;28;20315;-50
2022/12/29 10:26:35;;;;;;;15.45;3.25;;;;;;;18.45;100.00;100012.41;5113052;28;20035;-53
2022/12/29 10:29:09;;;;;;;8.97;2.40;;;;;;;18.72;100.00;100021.34;5112392;28;20054;-53
2022/12/29 10:31:50;;;;;;;7.63;3.23;;;;;;;19.18;100.00;100029.47;5110184;28;20269;-53
2022/12/29 10:34:23;;;;;;;14.20;2.80;;;;;;;20.14;100.00;100035.19;5114036;28;20282;-52
2022/12/29 10:36:55;;;;;;;13.43;2.20;;;;;;;18.41;100.00;100048.38;5115128;28;20344;-54
2022/12/29 10:39:36;;;;;;;14.33;3.03;;;;;;;20.10;100.00;100043.09;5110856;28;20280;-52
2022/12/29 10:42:18;;;;;;;9.97;3.03;;;;;;;20.51;100.00;100062.94;5110029;28;20257;-50
2022/12/29 10:44:43;;;;;;;8.87;3.10;;;;;;;20.58;100.00;100056.09;5110910;28;20788;-53
2022/12/29 10:47:14;;;;;;;10.10;3.20;;;;;;;20.57;100.00;100048.25;5107454;28;20268;-50
2022/12/29 10:49:45;;;;;;;17.77;3.50;;;;;;;19.48;100.00;100054.91;5093259;28;20276;-54
2022/12/29 10:52:12;;;;;;;17.33;4.67;;;;;;;18.57;100.00;100054.63;5117652;28;20279;-53
2022/12/29 10:54:53;;;;;;;20.03;4.10;;;;;;;19.15;100.00;100057.13;5116585;28;20281;-53
2022/12/29 10:57:31;;;;;;;17.03;4.37;;;;;;;19.32;100.00;100061.47;5121262;28;20256;-54
2022/12/29 10:59:57;;;;;;;15.57;4.03;;;;;;;19.84;100.00;100083.03;5118857;28;20289;-49
2022/12/29 11:02:42;;;;;;;16.30;3.93;;;;;;;18.73;100.00;100080.66;5120027;28;20028;-48
2022/12/29 11:05:28;;;;;;;19.33;3.80;;;;;;;18.25;100.00;100082.72;5117717;28;20302;-53
2022/12/29 11:07:59;;;;;;;23.73;5.73;;;;;;;18.31;100.00;100089.78;5115286;28;20272;-49
2022/12/29 11:10:36;;;;;;;17.07;5.00;;;;;;;18.98;100.00;100078.22;5117044;28;20256;-54
2022/12/29 11:13:10;;;;;;;17.63;5.03;;;;;;;20.08;100.00;100079.72;5117836;28;20291;-52
2022/12/29 11:15:43;;;;;;;12.23;4.90;;;;;;;20.05;100.00;100089.22;5116808;28;20023;-49
2022/12/29 11:18:19;;;;;;;29.13;6.17;;;;;;;20.20;100.00;100107.38;5114134;28;20309;-54
2022/12/29 11:20:45;;;;;;;22.00;6.10;;;;;;;19.76;100.00;100106.13;5117730;28;20327;-52
2022/12/29 11:23:25;;;;;;;34.15;6.20;;;;;;;20.05;100.00;100108.22;5116998;28;20259;-51
2022/12/29 11:26:22;;;;;;;24.67;6.50;;;;;;;19.78;100.00;100123.75;5114191;28;20061;-54
2022/12/29 11:29:16;;;;;;;19.30;5.10;;;;;;;19.49;100.00;100115.38;5113808;28;20284;-54
2022/12/29 11:31:50;;;;;;;22.57;5.27;;;;;;;21.16;100.00;100116.31;5112828;28;20032;-54
2022/12/29 11:34:34;;;;;;;13.63;5.03;;;;;;;19.36;100.00;100119.47;5087348;28;20281;-52
2022/12/29 11:37:06;;;;;;;19.97;4.60;;;;;;;19.98;100.00;100116.69;5089633;28;20257;-53
2022/12/29 11:39:50;;;;;;;20.30;5.67;;;;;;;20.09;100.00;100114.75;5084412;28;20273;-54
2022/12/29 11:42:19;;;;;;;21.23;4.30;;;;;;;19.18;100.00;100123.53;5086281;28;20305;-52
2022/12/29 11:44:49;;;;;;;19.57;3.97;;;;;;;19.70;100.00;100134.34;5100017;28;20268;-53
2022/12/29 11:47:32;;;;;;;15.00;3.63;;;;;;;19.89;100.00;100123.72;5087042;28;20273;-54
2022/12/29 11:50:04;;;;;;;22.13;4.43;;;;;;;19.31;100.00;100128.41;5087582;28;20284;-52
2022/12/29 11:52:39;;;;;;;20.03;4.80;;;;;;;22.57;100.00;100141.81;5085941;28;20286;-53
2022/12/29 11:55:07;;;;;;;11.33;2.87;;;;;;;20.81;100.00;100143.47;5086193;28;20277;-54
2022/12/29 11:57:34;;;;;;;14.97;4.07;;;;;;;23.16;96.17;100154.31;5086017;28;20276;-52
2022/12/29 12:00:03;;;;;;;10.50;2.93;;;;;;;19.99;100.00;100153.59;5089590;28;20289;-51
2022/12/29 12:02:42;;;;;;;23.77;4.10;;;;;;;21.05;100.00;100164.50;5086898;28;20261;-53
2022/12/29 12:05:17;;;;;;;30.73;4.10;;;;;;;19.84;100.00;100165.25;5083928;28;20270;-53
2022/12/29 12:07:46;;;;;;;15.13;3.80;;;;;;;22.89;100.00;100142.19;5086653;28;20254;-50
2022/12/29 12:10:19;;;;;;;18.70;3.87;;;;;;;19.12;100.00;100149.00;5087630;28;20295;-51
2022/12/29 12:12:55;;;;;;;13.97;3.83;;;;;;;18.82;100.00;100161.38;5091273;28;20341;-50
2022/12/29 12:15:42;;;;;;;25.60;4.53;;;;;;;21.37;100.00;100143.34;5090884;28;20284;-52
2022/12/29 12:18:15;;;;;;;19.55;3.53;;;;;;;21.35;99.34;100144.44;5089568;28;20276;-52